Time;durP1;ratioP1;P1;durP2;ratioP2;P2;SDS_P1;SDS_P2;PMS_P1;PMS_P2;Temp;Humidity;BMP_temperature;BMP_pressure;BME280_temperature;BME280_humidity;BME280_pressure;Samples;Min_cycle;Max_cycle;Signal;HPM_P1;HPM_P2
2022/08/25 00:01:13;;;;;;;;;;;27.50;54.80;;;;;;5086278;28;19913;-59
2022/08/25 00:03:39;;;;;;;;;;;27.60;54.60;;;;;;5074866;28;19912;-59
2022/08/25 00:06:05;;;;;;;;;;;27.60;54.60;;;;;;5071756;28;20339;-59
2022/08/25 00:08:33;;;;;;;;;;;27.60;54.60;;;;;;5090777;28;19920;-59
2022/08/25 00:11:00;;;;;;;;;;;27.60;54.80;;;;;;5088497;28;20270;-59
2022/08/25 00:13:25;;;;;;;;;;;27.50;55.00;;;;;;5094271;28;19954;-59
2022/08/25 00:15:50;;;;;;;;;;;27.50;54.90;;;;;;5107705;28;19971;-60
2022/08/25 00:18:16;;;;;;;;;;;27.60;54.90;;;;;;5110681;28;19912;-59
2022/08/25 00:20:41;;;;;;;;;;;27.60;54.90;;;;;;5114294;28;19964;-59
2022/08/25 00:23:07;;;;;;;;;;;27.60;54.70;;;;;;5115585;28;20376;-60
2022/08/25 00:25:32;;;;;;;;;;;27.60;54.70;;;;;;5094252;28;19934;-59
2022/08/25 00:27:58;;;;;;;;;;;27.60;54.80;;;;;;5115580;28;20064;-60
2022/08/25 00:30:24;;;;;;;;;;;27.60;54.90;;;;;;5112665;28;19911;-59
2022/08/25 00:32:49;;;;;;;;;;;27.60;54.80;;;;;;5096968;28;20007;-59
2022/08/25 00:35:15;;;;;;;;;;;27.60;54.80;;;;;;5107293;28;20275;-59
2022/08/25 00:37:40;;;;;;;;;;;27.60;55.10;;;;;;5111193;28;19912;-60
2022/08/25 00:40:06;;;;;;;;;;;27.60;55.20;;;;;;5113449;28;19912;-59
2022/08/25 00:42:32;;;;;;;;;;;27.50;55.20;;;;;;5096647;28;19912;-59
2022/08/25 00:44:57;;;;;;;;;;;27.50;55.10;;;;;;5093201;28;20002;-59
2022/08/25 00:47:23;;;;;;;;;;;27.40;55.30;;;;;;5108627;28;20375;-59
2022/08/25 00:49:50;;;;;;;;;;;27.40;55.40;;;;;;5112136;28;19922;-59
2022/08/25 00:52:22;;;;;;;;;;;27.40;55.70;;;;;;5113247;28;20414;-59
2022/08/25 00:55:07;;;;;;;;;;;27.40;55.40;;;;;;5093464;28;19915;-59
2022/08/25 00:57:35;;;;;;;;;;;27.40;55.70;;;;;;5095056;28;19998;-59
2022/08/25 01:00:00;;;;;;;;;;;27.30;56.00;;;;;;5113137;28;19942;-60
2022/08/25 01:02:26;;;;;;;;;;;27.30;56.20;;;;;;5112713;28;20010;-59
2022/08/25 01:04:51;;;;;;;;;;;27.20;56.20;;;;;;5113961;28;19911;-59
2022/08/25 01:07:17;;;;;;;;;;;27.30;56.10;;;;;;5095490;28;19912;-60
2022/08/25 01:09:43;;;;;;;;;;;27.30;55.80;;;;;;5073020;28;20012;-59
2022/08/25 01:12:09;;;;;;;;;;;27.40;55.70;;;;;;5094997;28;19948;-59
2022/08/25 01:14:34;;;;;;;;;;;27.40;55.80;;;;;;5094547;28;19927;-59
2022/08/25 01:16:59;;;;;;;;;;;27.30;55.80;;;;;;5114580;28;19918;-59
2022/08/25 01:19:25;;;;;;;;;;;27.40;55.70;;;;;;5112551;28;20387;-59
2022/08/25 01:21:51;;;;;;;;;;;27.50;55.50;;;;;;5096049;28;20278;-59
2022/08/25 01:24:20;;;;;;;;;;;27.50;55.50;;;;;;5093594;28;19911;-59
2022/08/25 01:26:45;;;;;;;;;;;27.40;55.70;;;;;;5103871;28;19908;-59
2022/08/25 01:29:19;;;;;;;;;;;27.40;56.00;;;;;;5101336;28;19916;-59
2022/08/25 01:31:45;;;;;;;;;;;27.40;55.90;;;;;;5113780;28;19953;-59
2022/08/25 01:34:11;;;;;;;;;;;27.50;55.50;;;;;;5094053;28;20325;-59
2022/08/25 01:36:36;;;;;;;;;;;27.50;55.50;;;;;;5113910;28;19915;-59
2022/08/25 01:39:02;;;;;;;;;;;27.50;55.30;;;;;;5112526;28;19916;-59
2022/08/25 01:41:28;;;;;;;;;;;27.50;55.30;;;;;;5094611;28;19916;-60
2022/08/25 01:43:53;;;;;;;;;;;27.50;55.50;;;;;;5094241;28;20287;-59
2022/08/25 01:46:19;;;;;;;;;;;27.50;55.50;;;;;;5094599;28;20438;-59
2022/08/25 01:48:44;;;;;;;;;;;27.60;55.40;;;;;;5093719;28;19923;-59
2022/08/25 01:51:10;;;;;;;;;;;27.50;55.10;;;;;;5113977;28;19912;-59
2022/08/25 01:53:35;;;;;;;;;;;27.50;55.50;;;;;;5094116;28;20376;-59
2022/08/25 01:56:08;;;;;;;;;;;27.40;55.60;;;;;;5112425;28;19964;-59
2022/08/25 01:58:35;;;;;;;;;;;27.40;55.80;;;;;;5112125;28;19977;-59
2022/08/25 02:01:01;;;;;;;;;;;27.40;55.80;;;;;;5112840;28;19912;-59
2022/08/25 02:03:27;;;;;;;;;;;27.40;55.80;;;;;;5093620;28;19962;-59
2022/08/25 02:05:52;;;;;;;;;;;27.50;55.50;;;;;;5113494;28;20341;-60
2022/08/25 02:08:18;;;;;;;;;;;27.40;55.70;;;;;;5093871;28;20275;-59
2022/08/25 02:10:44;;;;;;;;;;;27.40;55.60;;;;;;5110349;28;19978;-60
2022/08/25 02:13:10;;;;;;;;;;;27.50;55.40;;;;;;5094217;28;19951;-59
2022/08/25 02:15:39;;;;;;;;;;;27.50;55.50;;;;;;5111027;28;20334;-59
2022/08/25 02:18:04;;;;;;;;;;;27.60;55.50;;;;;;5111666;28;19947;-59
2022/08/25 02:20:29;;;;;;;;;;;27.60;55.10;;;;;;5112999;28;19958;-59
2022/08/25 02:22:55;;;;;;;;;;;27.60;55.00;;;;;;5111232;28;19957;-58
2022/08/25 02:25:20;;;;;;;;;;;27.60;55.20;;;;;;5111508;28;19919;-59
2022/08/25 02:27:46;;;;;;;;;;;27.70;55.00;;;;;;5094453;28;19956;-59
2022/08/25 02:30:12;;;;;;;;;;;27.70;54.90;;;;;;5111792;28;19961;-59
2022/08/25 02:32:38;;;;;;;;;;;27.70;54.90;;;;;;5113126;28;19907;-59
2022/08/25 02:35:04;;;;;;;;;;;27.70;54.80;;;;;;5110039;28;19920;-60
2022/08/25 02:37:30;;;;;;;;;;;27.60;55.00;;;;;;5103841;28;19919;-60
2022/08/25 02:39:55;;;;;;;;;;;27.60;55.00;;;;;;5110234;28;20379;-59
2022/08/25 02:42:21;;;;;;;;;;;27.60;55.10;;;;;;5112616;28;19908;-59
2022/08/25 02:44:46;;;;;;;;;;;27.50;55.10;;;;;;5110052;28;19915;-59
2022/08/25 02:47:12;;;;;;;;;;;27.50;55.10;;;;;;5112045;28;20045;-59
2022/08/25 02:49:37;;;;;;;;;;;27.60;54.90;;;;;;5111046;28;19927;-59
2022/08/25 02:52:04;;;;;;;;;;;27.60;54.90;;;;;;5094112;28;19916;-59
2022/08/25 02:54:29;;;;;;;;;;;27.60;54.90;;;;;;5111236;28;19957;-59
2022/08/25 02:56:55;;;;;;;;;;;27.70;55.10;;;;;;5094771;28;20322;-59
2022/08/25 02:59:20;;;;;;;;;;;27.70;54.90;;;;;;5110741;28;19919;-59
2022/08/25 03:01:45;;;;;;;;;;;27.60;55.20;;;;;;5112691;28;19912;-59
2022/08/25 03:04:11;;;;;;;;;;;27.50;55.30;;;;;;5092823;28;20456;-59
2022/08/25 03:06:36;;;;;;;;;;;27.50;55.50;;;;;;5111746;28;19911;-60
2022/08/25 03:09:03;;;;;;;;;;;27.50;55.60;;;;;;5110906;28;19946;-59
2022/08/25 03:11:28;;;;;;;;;;;27.50;55.50;;;;;;5109143;28;19911;-60
2022/08/25 03:13:55;;;;;;;;;;;27.40;55.40;;;;;;5100059;28;19927;-59
2022/08/25 03:16:20;;;;;;;;;;;27.50;55.60;;;;;;5104004;28;20010;-59
2022/08/25 03:18:46;;;;;;;;;;;27.40;55.50;;;;;;5073185;28;19944;-59
2022/08/25 03:21:12;;;;;;;;;;;27.40;55.30;;;;;;5088540;28;19920;-59
2022/08/25 03:23:38;;;;;;;;;;;27.50;55.10;;;;;;5110532;28;20483;-59
2022/08/25 03:28:47;;;;;;;;;;;27.40;55.40;;;;;;5111620;28;20287;-59
2022/08/25 03:31:13;;;;;;;;;;;27.50;55.40;;;;;;5111575;28;19920;-59
2022/08/25 03:33:38;;;;;;;;;;;27.50;55.40;;;;;;5110792;28;19916;-59
2022/08/25 03:36:04;;;;;;;;;;;27.50;54.90;;;;;;5093055;28;19920;-59
2022/08/25 03:38:30;;;;;;;;;;;27.50;55.10;;;;;;5110637;28;19915;-59
2022/08/25 03:40:55;;;;;;;;;;;27.50;55.30;;;;;;5109676;28;19915;-59
2022/08/25 03:43:21;;;;;;;;;;;27.50;55.40;;;;;;5091798;28;19941;-60
2022/08/25 03:45:46;;;;;;;;;;;27.50;54.90;;;;;;5111164;28;20364;-59
2022/08/25 03:48:13;;;;;;;;;;;27.60;54.90;;;;;;5107799;28;20019;-60
2022/08/25 03:50:43;;;;;;;;;;;27.50;55.20;;;;;;5112150;28;19919;-60
2022/08/25 03:53:08;;;;;;;;;;;27.50;55.20;;;;;;5111880;28;19922;-59
2022/08/25 03:55:34;;;;;;;;;;;27.50;55.50;;;;;;5113303;28;19915;-59
2022/08/25 03:57:59;;;;;;;;;;;27.30;55.40;;;;;;5115836;28;19998;-59
2022/08/25 04:00:25;;;;;;;;;;;27.30;55.40;;;;;;5112732;28;19970;-59
2022/08/25 04:02:50;;;;;;;;;;;27.30;55.50;;;;;;5115860;28;19957;-59
2022/08/25 04:05:16;;;;;;;;;;;27.30;55.50;;;;;;5095976;28;19961;-60
2022/08/25 04:07:41;;;;;;;;;;;27.30;55.50;;;;;;5115557;28;19912;-60
2022/08/25 04:10:07;;;;;;;;;;;27.30;55.70;;;;;;5113680;28;19963;-59
2022/08/25 04:12:33;;;;;;;;;;;27.30;55.80;;;;;;5113216;28;19912;-59
2022/08/25 04:14:58;;;;;;;;;;;27.20;55.60;;;;;;5094504;28;20112;-59
2022/08/25 04:17:23;;;;;;;;;;;27.30;55.70;;;;;;5108416;28;19918;-59
2022/08/25 04:19:49;;;;;;;;;;;27.30;55.70;;;;;;5115203;28;19911;-59
2022/08/25 04:22:16;;;;;;;;;;;27.30;55.60;;;;;;5096165;28;21286;-59
2022/08/25 04:24:42;;;;;;;;;;;27.20;55.30;;;;;;5113539;28;20448;-59
2022/08/25 04:27:07;;;;;;;;;;;27.20;55.60;;;;;;5096460;28;19930;-59
2022/08/25 04:29:33;;;;;;;;;;;27.30;55.70;;;;;;5095965;28;20387;-59
2022/08/25 04:31:58;;;;;;;;;;;27.30;55.70;;;;;;5115316;28;19915;-59
2022/08/25 04:34:24;;;;;;;;;;;27.30;55.60;;;;;;5113692;28;19919;-59
2022/08/25 04:36:49;;;;;;;;;;;27.30;55.60;;;;;;5091554;28;19912;-59
2022/08/25 04:39:16;;;;;;;;;;;27.30;55.50;;;;;;5108933;28;19962;-60
2022/08/25 04:41:41;;;;;;;;;;;27.20;55.40;;;;;;5113615;28;19911;-59
2022/08/25 04:44:07;;;;;;;;;;;27.30;55.50;;;;;;5114930;28;20386;-59
2022/08/25 04:46:32;;;;;;;;;;;27.20;55.60;;;;;;5109453;28;20006;-59
2022/08/25 04:48:59;;;;;;;;;;;27.20;55.70;;;;;;5107239;28;19920;-59
2022/08/25 04:51:26;;;;;;;;;;;27.20;55.80;;;;;;5094783;28;20279;-60
2022/08/25 04:53:52;;;;;;;;;;;27.20;55.80;;;;;;5095896;28;20379;-59
2022/08/25 04:56:18;;;;;;;;;;;27.20;55.50;;;;;;5112730;28;19954;-60
2022/08/25 04:58:45;;;;;;;;;;;27.20;55.60;;;;;;5113936;28;19922;-59
2022/08/25 05:01:14;;;;;;;;;;;27.20;55.70;;;;;;5113361;28;19916;-59
2022/08/25 05:03:40;;;;;;;;;;;27.20;55.80;;;;;;5113273;28;19933;-59
2022/08/25 05:06:05;;;;;;;;;;;27.30;55.70;;;;;;5114387;28;20002;-60
2022/08/25 05:08:31;;;;;;;;;;;27.20;55.80;;;;;;5092502;28;19998;-59
2022/08/25 05:10:56;;;;;;;;;;;27.20;56.00;;;;;;5093523;28;19919;-59
2022/08/25 05:13:22;;;;;;;;;;;27.20;56.10;;;;;;5105517;28;19912;-59
2022/08/25 05:15:54;;;;;;;;;;;27.10;56.00;;;;;;5075928;28;20300;-59
2022/08/25 05:18:20;;;;;;;;;;;27.20;55.80;;;;;;5085865;28;19914;-59
2022/08/25 05:20:46;;;;;;;;;;;27.10;55.90;;;;;;5074866;28;19912;-59
2022/08/25 05:23:11;;;;;;;;;;;27.10;56.30;;;;;;5102461;28;19907;-59
2022/08/25 05:25:37;;;;;;;;;;;27.00;56.60;;;;;;5098409;28;20010;-60
2022/08/25 05:28:02;;;;;;;;;;;26.90;56.80;;;;;;5114236;28;19907;-60
2022/08/25 05:30:28;;;;;;;;;;;26.90;57.00;;;;;;5091276;28;20355;-59
2022/08/25 05:32:53;;;;;;;;;;;26.90;57.10;;;;;;5107985;28;20324;-59
2022/08/25 05:35:19;;;;;;;;;;;26.80;57.20;;;;;;5113175;28;19961;-59
2022/08/25 05:37:45;;;;;;;;;;;26.70;57.20;;;;;;5113783;28;20440;-59
2022/08/25 05:40:10;;;;;;;;;;;26.80;57.20;;;;;;5112408;28;19911;-60
2022/08/25 05:42:36;;;;;;;;;;;26.80;57.30;;;;;;5083956;28;19936;-59
2022/08/25 05:45:02;;;;;;;;;;;26.80;57.30;;;;;;5113402;28;19955;-59
2022/08/25 05:47:28;;;;;;;;;;;26.70;57.50;;;;;;5093959;28;19912;-59
2022/08/25 05:49:53;;;;;;;;;;;26.70;57.70;;;;;;5095450;28;19916;-60
2022/08/25 05:52:19;;;;;;;;;;;26.70;57.80;;;;;;5111769;28;19955;-59
2022/08/25 05:54:44;;;;;;;;;;;26.60;57.80;;;;;;5110588;27;19944;-59
2022/08/25 05:57:10;;;;;;;;;;;26.70;57.80;;;;;;5110944;28;20398;-60
2022/08/25 05:59:35;;;;;;;;;;;26.70;57.70;;;;;;5111965;28;19919;-59
2022/08/25 06:04:45;;;;;;;;;;;26.70;58.00;;;;;;5109825;28;19918;-60
2022/08/25 06:07:11;;;;;;;;;;;26.60;57.90;;;;;;5091761;28;19915;-59
2022/08/25 06:09:39;;;;;;;;;;;26.60;58.00;;;;;;5111817;28;20010;-59
2022/08/25 06:12:05;;;;;;;;;;;26.60;58.20;;;;;;5111720;28;20283;-60
2022/08/25 06:14:30;;;;;;;;;;;26.50;58.50;;;;;;5100839;28;19923;-59
2022/08/25 06:16:56;;;;;;;;;;;26.40;58.60;;;;;;5090575;28;19998;-59
2022/08/25 06:19:22;;;;;;;;;;;26.40;58.50;;;;;;5090880;28;19959;-59
2022/08/25 06:21:48;;;;;;;;;;;26.40;58.70;;;;;;5091142;28;20272;-59
2022/08/25 06:24:13;;;;;;;;;;;26.40;58.70;;;;;;5090141;28;19967;-59
2022/08/25 06:26:39;;;;;;;;;;;26.30;59.00;;;;;;5092119;28;19908;-59
2022/08/25 06:29:04;;;;;;;;;;;26.30;59.20;;;;;;5089651;28;19923;-59
2022/08/25 06:31:29;;;;;;;;;;;26.20;59.70;;;;;;5072148;28;19909;-59
2022/08/25 06:33:56;;;;;;;;;;;26.20;59.70;;;;;;5088191;28;19987;-59
2022/08/25 06:36:22;;;;;;;;;;;26.20;59.70;;;;;;5072131;28;19912;-59
2022/08/25 06:38:47;;;;;;;;;;;26.20;59.60;;;;;;5081932;28;19918;-59
2022/08/25 06:41:13;;;;;;;;;;;26.20;59.70;;;;;;5089331;28;20019;-59
2022/08/25 06:43:39;;;;;;;;;;;26.20;59.70;;;;;;5054178;28;19930;-59
2022/08/25 06:46:09;;;;;;;;;;;26.20;59.60;;;;;;5072008;28;19916;-59
2022/08/25 06:48:34;;;;;;;;;;;26.20;59.60;;;;;;5072496;28;19943;-59
2022/08/25 06:51:04;;;;;;;;;;;26.20;59.70;;;;;;5052985;28;20000;-59
2022/08/25 06:53:29;;;;;;;;;;;26.20;60.30;;;;;;5089114;28;19912;-60
2022/08/25 06:55:56;;;;;;;;;;;26.20;59.90;;;;;;5087380;28;19912;-59
2022/08/25 06:58:22;;;;;;;;;;;26.10;60.00;;;;;;5065991;28;20368;-58
2022/08/25 07:00:48;;;;;;;;;;;26.20;59.90;;;;;;5086367;28;19954;-62
2022/08/25 07:03:13;;;;;;;;;;;26.20;59.90;;;;;;5086638;28;20540;-57
2022/08/25 07:05:38;;;;;;;;;;;26.30;59.70;;;;;;5087602;28;19939;-59
2022/08/25 07:08:04;;;;;;;;;;;26.40;59.50;;;;;;5085951;28;19913;-60
2022/08/25 07:10:29;;;;;;;;;;;26.50;59.40;;;;;;5063694;28;19998;-61
2022/08/25 07:12:55;;;;;;;;;;;26.40;59.50;;;;;;5089947;28;19912;-60
2022/08/25 07:15:20;;;;;;;;;;;26.40;59.50;;;;;;5108495;28;20022;-61
2022/08/25 07:17:46;;;;;;;;;;;26.40;59.70;;;;;;5090290;28;19919;-60
2022/08/25 07:20:12;;;;;;;;;;;26.30;60.00;;;;;;5092555;28;19986;-60
2022/08/25 07:22:37;;;;;;;;;;;26.30;60.00;;;;;;5091966;28;19912;-57
2022/08/25 07:25:03;;;;;;;;;;;26.30;60.10;;;;;;5105150;28;19919;-58
2022/08/25 07:27:28;;;;;;;;;;;26.30;60.00;;;;;;5107172;28;19916;-61
2022/08/25 07:29:55;;;;;;;;;;;26.40;60.00;;;;;;5110918;28;19916;-62
2022/08/25 07:32:21;;;;;;;;;;;26.50;60.10;;;;;;5114303;28;19931;-61
2022/08/25 07:37:30;;;;;;;;;;;26.50;60.10;;;;;;5088954;28;19919;-60
2022/08/25 07:39:58;;;;;;;;;;;26.50;59.80;;;;;;5102568;28;19911;-62
2022/08/25 07:42:25;;;;;;;;;;;26.40;60.80;;;;;;5114017;28;19916;-60
2022/08/25 07:44:51;;;;;;;;;;;26.30;60.50;;;;;;5096341;28;19919;-60
2022/08/25 07:47:16;;;;;;;;;;;26.20;60.70;;;;;;5096567;28;19915;-60
2022/08/25 07:49:42;;;;;;;;;;;26.20;61.00;;;;;;5113969;28;19915;-62
2022/08/25 07:52:07;;;;;;;;;;;26.00;61.30;;;;;;5112111;28;20294;-61
2022/08/25 07:54:33;;;;;;;;;;;25.90;61.80;;;;;;5112371;28;19985;-59
2022/08/25 07:56:58;;;;;;;;;;;26.00;61.80;;;;;;5095328;28;19938;-61
2022/08/25 07:59:24;;;;;;;;;;;26.10;61.60;;;;;;5095195;28;20322;-60
2022/08/25 08:01:49;;;;;;;;;;;26.00;61.70;;;;;;5112079;28;20411;-60
2022/08/25 08:04:15;;;;;;;;;;;26.00;61.80;;;;;;5109117;28;19934;-61
2022/08/25 08:06:40;;;;;;;;;;;26.00;62.00;;;;;;5094953;28;20023;-60
2022/08/25 08:09:06;;;;;;;;;;;25.90;62.20;;;;;;5113717;28;19964;-61
2022/08/25 08:11:33;;;;;;;;;;;25.90;62.30;;;;;;5113779;28;19956;-61
2022/08/25 08:13:58;;;;;;;;;;;26.00;62.00;;;;;;5105705;28;20276;-60
2022/08/25 08:16:24;;;;;;;;;;;26.10;61.80;;;;;;5089462;28;19962;-60
2022/08/25 08:18:50;;;;;;;;;;;26.20;61.50;;;;;;5093589;28;19916;-61
2022/08/25 08:21:17;;;;;;;;;;;26.20;61.30;;;;;;5072217;28;20287;-60
2022/08/25 08:23:42;;;;;;;;;;;26.20;61.20;;;;;;5087942;28;20019;-60
2022/08/25 08:26:07;;;;;;;;;;;26.30;61.10;;;;;;5073927;28;20038;-60
2022/08/25 08:28:33;;;;;;;;;;;26.30;61.10;;;;;;5090910;28;19920;-60
2022/08/25 08:30:59;;;;;;;;;;;26.30;61.10;;;;;;5073022;28;20027;-60
2022/08/25 08:33:24;;;;;;;;;;;26.30;60.90;;;;;;5093201;28;20022;-60
2022/08/25 08:35:56;;;;;;;;;;;26.40;60.70;;;;;;5091523;28;19967;-59
2022/08/25 08:38:22;;;;;;;;;;;26.40;60.60;;;;;;5073964;28;19912;-59
2022/08/25 08:43:43;;;;;;;;;;;26.40;61.00;;;;;;5091232;28;19923;-59
2022/08/25 08:46:09;;;;;;;;;;;26.40;61.00;;;;;;5093372;28;19908;-60
2022/08/25 08:48:53;;;;;;;;;;;26.30;61.00;;;;;;5071077;28;19916;-60
2022/08/25 08:51:20;;;;;;;;;;;26.30;61.10;;;;;;5093653;28;19961;-61
2022/08/25 08:53:53;;;;;;;;;;;26.30;61.20;;;;;;5071354;28;20310;-59
2022/08/25 08:56:22;;;;;;;;;;;26.20;61.40;;;;;;5091471;28;19931;-58
2022/08/25 08:59:14;;;;;;;;;;;26.30;61.20;;;;;;5074416;28;19919;-60
2022/08/25 09:01:47;;;;;;;;;;;26.30;61.20;;;;;;5087544;28;19912;-60
2022/08/25 09:04:19;;;;;;;;;;;26.30;61.10;;;;;;5048268;28;20009;-60
2022/08/25 09:06:46;;;;;;;;;;;26.40;61.00;;;;;;5092643;28;19916;-61
2022/08/25 09:09:13;;;;;;;;;;;26.40;60.80;;;;;;5071560;28;20422;-61
2022/08/25 09:11:48;;;;;;;;;;;26.50;60.60;;;;;;5074118;28;20351;-59
2022/08/25 09:14:32;;;;;;;;;;;26.50;60.60;;;;;;5089989;28;19928;-59
2022/08/25 09:17:24;;;;;;;;;;;26.60;60.30;;;;;;5110069;28;19919;-61
2022/08/25 09:19:56;;;;;;;;;;;26.60;60.20;;;;;;5073427;28;20419;-61
2022/08/25 09:22:38;;;;;;;;;;;26.70;60.30;;;;;;5099348;28;19916;-58
2022/08/25 09:25:03;;;;;;;;;;;26.60;60.20;;;;;;5108589;28;19916;-60
2022/08/25 09:27:38;;;;;;;;;;;26.50;60.70;;;;;;5103959;28;20431;-60
2022/08/25 09:30:08;;;;;;;;;;;26.50;60.90;;;;;;5112788;28;20470;-58
2022/08/25 09:32:34;;;;;;;;;;;26.40;61.10;;;;;;5101884;28;19922;-60
2022/08/25 09:35:00;;;;;;;;;;;26.40;61.30;;;;;;5108929;28;20008;-60
2022/08/25 09:37:26;;;;;;;;;;;26.30;61.30;;;;;;5091075;28;20062;-62
2022/08/25 09:39:51;;;;;;;;;;;26.40;61.40;;;;;;5083779;28;20438;-58
2022/08/25 09:42:17;;;;;;;;;;;26.40;61.20;;;;;;5112211;28;19935;-59
2022/08/25 09:44:43;;;;;;;;;;;26.40;61.00;;;;;;5106262;28;19931;-59
2022/08/25 09:47:18;;;;;;;;;;;26.50;61.00;;;;;;5109625;27;19916;-60
2022/08/25 09:49:55;;;;;;;;;;;26.50;61.00;;;;;;5111890;28;20410;-58
2022/08/25 09:52:36;;;;;;;;;;;26.50;60.90;;;;;;5105042;28;19974;-60
2022/08/25 09:55:05;;;;;;;;;;;26.70;61.10;;;;;;5112213;28;19931;-59
2022/08/25 09:57:35;;;;;;;;;;;26.80;60.40;;;;;;5109243;28;20343;-61
2022/08/25 10:00:12;;;;;;;;;;;26.90;60.40;;;;;;5085700;28;19916;-60
2022/08/25 10:02:37;;;;;;;;;;;26.90;60.00;;;;;;5099774;28;19919;-59
2022/08/25 10:05:16;;;;;;;;;;;27.00;60.10;;;;;;5110015;28;19916;-61
2022/08/25 10:07:47;;;;;;;;;;;26.90;60.40;;;;;;5108784;28;19927;-59
2022/08/25 10:10:17;;;;;;;;;;;26.90;60.40;;;;;;5091666;28;19915;-61
2022/08/25 10:12:43;;;;;;;;;;;26.90;60.00;;;;;;5111366;28;19924;-60
2022/08/25 10:15:28;;;;;;;;;;;27.00;60.20;;;;;;5076456;28;20454;-60
2022/08/25 10:17:55;;;;;;;;;;;27.00;60.10;;;;;;5072029;28;19995;-60
2022/08/25 10:20:21;;;;;;;;;;;27.00;60.40;;;;;;5056684;28;19919;-60
2022/08/25 10:22:47;;;;;;;;;;;27.10;60.00;;;;;;5071443;28;19912;-61
2022/08/25 10:25:13;;;;;;;;;;;27.10;59.90;;;;;;5087940;28;19962;-60
2022/08/25 10:27:39;;;;;;;;;;;27.10;59.90;;;;;;5067980;28;19923;-61
2022/08/25 10:30:08;;;;;;;;;;;27.20;59.70;;;;;;5068543;28;19916;-60
2022/08/25 10:32:36;;;;;;;;;;;27.30;59.60;;;;;;5085593;28;19916;-58
2022/08/25 10:35:06;;;;;;;;;;;27.30;59.50;;;;;;5090737;28;19912;-60
2022/08/25 10:37:42;;;;;;;;;;;27.40;60.00;;;;;;5087270;28;20288;-58
2022/08/25 10:40:08;;;;;;;;;;;27.40;59.60;;;;;;5070489;28;19955;-60
2022/08/25 10:42:53;;;;;;;;;;;27.40;59.30;;;;;;5091211;28;19916;-60
2022/08/25 10:48:16;;;;;;;;;;;27.30;59.40;;;;;;5089210;28;19919;-60
2022/08/25 10:50:43;;;;;;;;;;;27.20;59.50;;;;;;5089743;28;19916;-60
2022/08/25 10:53:21;;;;;;;;;;;27.30;59.70;;;;;;5072557;28;19960;-60
2022/08/25 10:55:49;;;;;;;;;;;27.30;59.30;;;;;;5071517;28;20362;-59
2022/08/25 10:58:21;;;;;;;;;;;27.40;59.00;;;;;;5087770;28;20352;-59
2022/08/25 11:00:50;;;;;;;;;;;27.20;59.00;;;;;;5072829;28;20376;-60
2022/08/25 11:03:18;;;;;;;;;;;27.30;59.80;;;;;;5089183;28;19912;-59
2022/08/25 11:06:10;;;;;;;;;;;27.30;58.90;;;;;;5089970;28;19916;-60
2022/08/25 11:08:39;;;;;;;;;;;27.50;58.80;;;;;;5083479;28;19920;-57
2022/08/25 11:11:25;;;;;;;;;;;27.40;58.20;;;;;;5089963;28;20279;-59
2022/08/25 11:13:52;;;;;;;;;;;27.50;58.30;;;;;;5089758;28;19924;-59
2022/08/25 11:16:19;;;;;;;;;;;27.50;58.20;;;;;;5070957;28;19912;-59
2022/08/25 11:18:47;;;;;;;;;;;27.50;58.20;;;;;;5087805;28;19913;-59
2022/08/25 11:21:20;;;;;;;;;;;27.50;58.00;;;;;;5086599;28;19920;-60
2022/08/25 11:23:49;;;;;;;;;;;27.60;58.10;;;;;;5088106;28;19916;-59
2022/08/25 11:26:16;;;;;;;;;;;27.60;57.60;;;;;;5087154;28;19912;-60
2022/08/25 11:28:50;;;;;;;;;;;27.50;57.20;;;;;;5052471;28;19920;-59
2022/08/25 11:31:16;;;;;;;;;;;27.60;57.00;;;;;;5086023;28;20363;-60
2022/08/25 11:33:42;;;;;;;;;;;27.60;56.70;;;;;;5067803;28;19920;-59
2022/08/25 11:36:26;;;;;;;;;;;27.50;56.50;;;;;;5067449;28;20386;-59
2022/08/25 11:39:08;;;;;;;;;;;27.50;56.40;;;;;;5082931;28;19916;-60
2022/08/25 11:41:40;;;;;;;;;;;27.50;56.20;;;;;;5087037;28;19916;-60
2022/08/25 11:44:11;;;;;;;;;;;27.60;56.30;;;;;;5088237;28;19992;-60
2022/08/25 11:46:44;;;;;;;;;;;27.60;56.00;;;;;;5066917;28;19908;-60
2022/08/25 11:49:20;;;;;;;;;;;27.70;55.70;;;;;;5090900;28;19958;-58
2022/08/25 11:51:46;;;;;;;;;;;27.80;55.70;;;;;;5072629;28;19956;-60
2022/08/25 11:54:15;;;;;;;;;;;27.90;55.30;;;;;;5071077;28;19923;-60
2022/08/25 11:56:40;;;;;;;;;;;28.00;55.20;;;;;;5071151;28;19912;-59
2022/08/25 11:59:06;;;;;;;;;;;28.00;55.50;;;;;;5090663;28;19999;-60
2022/08/25 12:01:41;;;;;;;;;;;28.00;54.80;;;;;;5088476;28;19916;-60
2022/08/25 12:04:26;;;;;;;;;;;28.10;54.70;;;;;;5088765;28;19988;-61
2022/08/25 12:07:09;;;;;;;;;;;28.10;54.50;;;;;;5086529;28;19926;-60
2022/08/25 12:09:50;;;;;;;;;;;28.10;54.40;;;;;;5084238;28;19926;-60
2022/08/25 12:12:28;;;;;;;;;;;28.10;54.50;;;;;;5088391;28;20374;-61
2022/08/25 12:14:53;;;;;;;;;;;28.20;54.70;;;;;;5090937;28;19954;-60
2022/08/25 12:17:20;;;;;;;;;;;28.20;54.20;;;;;;5086383;28;20261;-60
2022/08/25 12:19:48;;;;;;;;;;;28.30;53.70;;;;;;5066502;28;19916;-60
2022/08/25 12:22:21;;;;;;;;;;;28.30;53.50;;;;;;5087830;28;20423;-61
2022/08/25 12:24:56;;;;;;;;;;;28.20;53.30;;;;;;5091461;28;20485;-62
2022/08/25 12:27:41;;;;;;;;;;;28.20;53.50;;;;;;5070804;28;20375;-61
2022/08/25 12:30:13;;;;;;;;;;;28.20;53.80;;;;;;5088729;28;20034;-60
2022/08/25 12:32:38;;;;;;;;;;;28.30;53.30;;;;;;5068184;28;19913;-61
2022/08/25 12:35:20;;;;;;;;;;;28.40;53.60;;;;;;5089812;28;20003;-60
2022/08/25 12:37:52;;;;;;;;;;;28.40;53.00;;;;;;5067778;28;20482;-59
2022/08/25 12:40:26;;;;;;;;;;;28.50;53.60;;;;;;5084457;28;19912;-60
2022/08/25 12:42:59;;;;;;;;;;;28.50;52.90;;;;;;5073118;28;19912;-60
2022/08/25 12:45:32;;;;;;;;;;;28.50;52.60;;;;;;5068724;28;20391;-60
2022/08/25 12:48:18;;;;;;;;;;;28.60;53.20;;;;;;5089144;28;20280;-61
2022/08/25 12:50:46;;;;;;;;;;;28.60;52.20;;;;;;5085732;28;19927;-60
2022/08/25 12:53:38;;;;;;;;;;;28.60;51.90;;;;;;5084611;28;19923;-60
2022/08/25 12:56:21;;;;;;;;;;;28.60;52.20;;;;;;5049737;28;19916;-62
2022/08/25 12:58:53;;;;;;;;;;;28.50;52.40;;;;;;5088012;28;19912;-60
2022/08/25 13:01:25;;;;;;;;;;;28.50;52.50;;;;;;5070478;28;20358;-61
2022/08/25 13:03:59;;;;;;;;;;;28.50;52.50;;;;;;5073123;28;20422;-60
2022/08/25 13:06:30;;;;;;;;;;;28.40;52.50;;;;;;5075855;28;20308;-60
2022/08/25 13:09:14;;;;;;;;;;;28.40;52.60;;;;;;5088447;28;19961;-60
2022/08/25 13:11:44;;;;;;;;;;;28.50;52.10;;;;;;5086080;28;20305;-61
2022/08/25 13:14:31;;;;;;;;;;;28.50;52.20;;;;;;5077136;28;19927;-61
2022/08/25 13:16:57;;;;;;;;;;;28.60;52.20;;;;;;5092890;28;19930;-60
2022/08/25 13:19:24;;;;;;;;;;;28.50;51.80;;;;;;5092839;28;20329;-60
2022/08/25 13:21:49;;;;;;;;;;;28.50;51.80;;;;;;5109572;28;20394;-59
2022/08/25 13:24:20;;;;;;;;;;;28.50;52.10;;;;;;5094866;28;20011;-62
2022/08/25 13:26:45;;;;;;;;;;;28.50;51.60;;;;;;5092419;28;19955;-62
2022/08/25 13:29:12;;;;;;;;;;;28.40;52.10;;;;;;5094491;28;19955;-60
2022/08/25 13:31:38;;;;;;;;;;;28.40;51.90;;;;;;5093761;28;19912;-60
2022/08/25 13:34:04;;;;;;;;;;;28.40;52.10;;;;;;5094897;28;20287;-60
2022/08/25 13:39:16;;;;;;;;;;;28.60;51.90;;;;;;5111577;28;19919;-61
2022/08/25 13:41:45;;;;;;;;;;;28.60;51.60;;;;;;5111254;28;20010;-61
2022/08/25 13:44:11;;;;;;;;;;;28.70;51.60;;;;;;5076071;28;19915;-61
2022/08/25 13:46:37;;;;;;;;;;;28.70;51.00;;;;;;5106263;28;20311;-62
2022/08/25 13:49:06;;;;;;;;;;;28.70;50.50;;;;;;5077458;28;20014;-61
2022/08/25 13:51:31;;;;;;;;;;;28.70;50.40;;;;;;5112456;28;19922;-61
2022/08/25 13:53:58;;;;;;;;;;;28.80;50.40;;;;;;5111471;28;19915;-60
2022/08/25 13:56:25;;;;;;;;;;;28.70;50.70;;;;;;5112275;28;19912;-59
2022/08/25 13:58:51;;;;;;;;;;;28.70;50.90;;;;;;5091524;28;19964;-61
2022/08/25 14:01:22;;;;;;;;;;;28.70;50.90;;;;;;5109089;28;20523;-61
2022/08/25 14:03:48;;;;;;;;;;;28.70;50.90;;;;;;5110116;28;20352;-60
2022/08/25 14:06:13;;;;;;;;;;;28.60;50.90;;;;;;5110276;28;20002;-59
2022/08/25 14:08:39;;;;;;;;;;;28.60;51.30;;;;;;5088962;28;19970;-59
2022/08/25 14:11:09;;;;;;;;;;;28.60;51.20;;;;;;5110642;28;19955;-59
2022/08/25 14:13:35;;;;;;;;;;;28.70;50.90;;;;;;5089409;28;19923;-61
2022/08/25 14:16:08;;;;;;;;;;;28.70;50.90;;;;;;5103377;28;19922;-61
2022/08/25 14:18:33;;;;;;;;;;;28.80;50.70;;;;;;5103247;28;19923;-60
2022/08/25 14:20:59;;;;;;;;;;;28.80;50.70;;;;;;5106705;28;19912;-60
2022/08/25 14:23:26;;;;;;;;;;;28.90;50.80;;;;;;5104858;28;19916;-59
2022/08/25 14:25:52;;;;;;;;;;;29.00;49.50;;;;;;5095687;28;19996;-60
2022/08/25 14:28:19;;;;;;;;;;;28.90;50.00;;;;;;5089701;28;19951;-61
2022/08/25 14:30:48;;;;;;;;;;;28.90;50.00;;;;;;5087911;28;19974;-60
2022/08/25 14:33:14;;;;;;;;;;;28.90;49.50;;;;;;5092291;28;19968;-61
2022/08/25 14:35:41;;;;;;;;;;;29.00;49.60;;;;;;5111414;28;19912;-61
2022/08/25 14:38:07;;;;;;;;;;;29.10;49.60;;;;;;5085753;28;20061;-61